createdAt,value
2022-12-31T00:00:09.030Z,100.00
2022-12-31T00:09:47.744Z,100.00
2022-12-31T00:12:37.311Z,100.00
2022-12-31T00:15:14.904Z,100.00
2022-12-31T00:21:55.905Z,100.00
2022-12-31T00:24:23.470Z,100.00
2022-12-31T00:30:50.885Z,100.00
2022-12-31T00:37:11.878Z,100.00
2022-12-31T00:39:39.338Z,100.00
2022-12-31T00:42:17.025Z,100.00
2022-12-31T00:44:44.682Z,100.00
2022-12-31T00:51:10.739Z,100.00
2022-12-31T00:57:16.913Z,100.00
2022-12-31T01:03:38.261Z,100.00
2022-12-31T01:06:07.954Z,100.00
2022-12-31T01:12:24.379Z,100.00
2022-12-31T01:25:11.862Z,100.00
2022-12-31T01:27:59.487Z,100.00
2022-12-31T01:34:20.004Z,100.00
2022-12-31T01:36:47.446Z,100.00
2022-12-31T01:43:16.580Z,100.00
2022-12-31T01:49:45.801Z,100.00
2022-12-31T01:52:17.661Z,100.00
2022-12-31T01:58:31.520Z,100.00
2022-12-31T02:04:55.941Z,100.00
2022-12-31T02:11:43.888Z,100.00
2022-12-31T02:14:13.906Z,100.00
2022-12-31T02:31:54.351Z,100.00
2022-12-31T02:34:31.331Z,100.00
2022-12-31T02:40:52.761Z,100.00
2022-12-31T02:47:13.798Z,100.00
2022-12-31T02:50:25.901Z,100.00
2022-12-31T02:56:32.899Z,100.00
2022-12-31T02:59:31.899Z,100.00
2022-12-31T03:05:56.099Z,100.00
2022-12-31T03:12:19.081Z,98.56
2022-12-31T03:14:51.961Z,97.84
2022-12-31T03:21:19.132Z,98.46
2022-12-31T03:27:18.972Z,98.95
2022-12-31T03:33:37.129Z,100.00
2022-12-31T03:36:19.006Z,100.00
2022-12-31T03:42:39.955Z,100.00
2022-12-31T03:48:54.932Z,100.00
2022-12-31T03:51:34.983Z,100.00
2022-12-31T03:57:51.105Z,100.00
2022-12-31T04:03:48.201Z,100.00
2022-12-31T04:10:12.264Z,100.00
2022-12-31T04:12:50.884Z,100.00
2022-12-31T04:19:06.273Z,100.00
2022-12-31T04:22:07.627Z,100.00
2022-12-31T04:24:37.956Z,100.00
2022-12-31T04:27:18.000Z,100.00
2022-12-31T04:34:02.076Z,100.00
2022-12-31T04:40:37.338Z,99.63
2022-12-31T04:43:21.056Z,99.75
2022-12-31T04:49:41.992Z,100.00
2022-12-31T04:55:56.981Z,100.00
2022-12-31T04:58:33.039Z,100.00
2022-12-31T05:04:55.094Z,100.00
2022-12-31T05:11:36.708Z,100.00
2022-12-31T05:14:11.122Z,100.00
2022-12-31T05:20:12.890Z,100.00
2022-12-31T05:26:13.959Z,100.00
2022-12-31T05:32:36.948Z,100.00
2022-12-31T05:35:10.950Z,100.00
2022-12-31T05:41:31.972Z,100.00
2022-12-31T05:48:15.121Z,100.00
2022-12-31T05:50:48.002Z,100.00
2022-12-31T05:56:48.155Z,100.00
2022-12-31T05:59:35.974Z,100.00
2022-12-31T06:05:41.859Z,100.00
2022-12-31T06:11:25.912Z,100.00
2022-12-31T06:17:52.982Z,100.00
2022-12-31T06:30:49.317Z,100.00
2022-12-31T06:33:27.079Z,99.99
2022-12-31T06:45:50.082Z,100.00
2022-12-31T06:48:44.684Z,100.00
2022-12-31T06:54:52.599Z,100.00
2022-12-31T06:57:41.350Z,100.00
2022-12-31T07:04:12.618Z,100.00
2022-12-31T07:10:29.849Z,100.00
2022-12-31T07:13:18.000Z,100.00
2022-12-31T07:15:56.626Z,100.00
2022-12-31T07:18:45.273Z,100.00
2022-12-31T07:25:07.220Z,100.00
2022-12-31T07:31:46.208Z,100.00
2022-12-31T07:34:28.973Z,100.00
2022-12-31T07:41:07.464Z,100.00
2022-12-31T07:47:25.169Z,100.00
2022-12-31T07:50:21.917Z,100.00
2022-12-31T07:56:43.768Z,99.80
2022-12-31T08:02:27.120Z,99.70
2022-12-31T08:05:04.867Z,100.00
2022-12-31T08:07:44.944Z,100.00
2022-12-31T08:10:19.198Z,100.00
2022-12-31T08:12:47.296Z,97.76
2022-12-31T08:15:17.923Z,96.25
2022-12-31T08:17:55.612Z,97.66
2022-12-31T08:20:22.906Z,96.68
2022-12-31T08:23:20.528Z,96.67
2022-12-31T08:26:04.391Z,97.63
2022-12-31T08:28:54.855Z,95.56
2022-12-31T08:31:30.858Z,95.01
2022-12-31T08:34:13.182Z,93.79
2022-12-31T08:36:55.240Z,93.83
2022-12-31T08:39:43.861Z,92.70
2022-12-31T08:42:22.336Z,90.23
2022-12-31T08:45:06.222Z,90.22
2022-12-31T08:47:59.826Z,91.43
2022-12-31T08:50:34.477Z,92.77
2022-12-31T08:53:01.403Z,91.56
2022-12-31T08:55:36.890Z,91.01
2022-12-31T08:58:15.677Z,91.18
2022-12-31T09:00:46.581Z,90.15
2022-12-31T09:03:49.440Z,88.30
2022-12-31T09:06:26.861Z,89.06
2022-12-31T09:09:04.040Z,87.58
2022-12-31T09:11:40.487Z,85.28
2022-12-31T09:14:25.274Z,83.57
2022-12-31T09:17:04.652Z,84.22
2022-12-31T09:19:33.637Z,85.10
2022-12-31T09:22:05.209Z,84.42
2022-12-31T09:24:33.001Z,80.71
2022-12-31T09:27:13.106Z,82.03
2022-12-31T09:29:52.912Z,80.69
2022-12-31T09:32:26.831Z,80.35
2022-12-31T09:34:57.012Z,79.51
2022-12-31T09:37:41.156Z,79.88
2022-12-31T09:40:34.790Z,78.89
2022-12-31T09:43:42.207Z,77.77
2022-12-31T09:46:48.361Z,77.62
2022-12-31T09:50:04.774Z,76.94
2022-12-31T09:52:50.472Z,76.12
2022-12-31T09:55:40.099Z,74.06
2022-12-31T09:58:28.203Z,73.42
2022-12-31T10:01:03.071Z,72.42
2022-12-31T10:04:06.678Z,72.25
2022-12-31T10:06:42.361Z,71.80
2022-12-31T10:09:32.294Z,70.98
2022-12-31T10:12:18.641Z,69.64
2022-12-31T10:15:14.481Z,68.66
2022-12-31T10:17:55.551Z,67.62
2022-12-31T10:20:33.461Z,66.06
2022-12-31T10:23:19.059Z,66.26
2022-12-31T10:26:05.944Z,66.51
2022-12-31T10:28:45.721Z,65.42
2022-12-31T10:31:16.366Z,65.61
2022-12-31T10:33:47.237Z,65.10
2022-12-31T10:36:24.329Z,64.08
2022-12-31T10:39:14.422Z,64.33
2022-12-31T10:42:19.470Z,63.55
2022-12-31T10:45:27.238Z,62.94
2022-12-31T10:48:56.319Z,63.25
2022-12-31T10:52:05.880Z,63.61
2022-12-31T10:55:24.397Z,63.79
2022-12-31T10:58:15.339Z,62.30
2022-12-31T11:00:53.595Z,61.90
2022-12-31T11:04:02.610Z,62.69
2022-12-31T11:07:25.224Z,62.45
2022-12-31T11:10:20.195Z,62.91
2022-12-31T11:13:52.089Z,60.58
2022-12-31T11:16:34.258Z,60.26
2022-12-31T11:19:12.926Z,60.81
2022-12-31T11:21:50.374Z,60.44
2022-12-31T11:24:35.946Z,60.83
2022-12-31T11:27:18.620Z,61.13
2022-12-31T11:30:19.739Z,60.55
2022-12-31T11:33:01.052Z,60.20
2022-12-31T11:35:38.107Z,60.22
2022-12-31T11:38:16.274Z,57.56
2022-12-31T11:40:57.489Z,58.44
2022-12-31T11:43:30.925Z,58.33
2022-12-31T11:46:33.988Z,58.48
2022-12-31T11:49:14.563Z,58.46
2022-12-31T11:52:21.038Z,59.45
2022-12-31T11:55:03.470Z,60.25
2022-12-31T11:57:34.053Z,61.79
2022-12-31T12:00:06.549Z,62.02
2022-12-31T12:02:36.373Z,62.60
2022-12-31T12:05:11.032Z,61.64
2022-12-31T12:07:38.593Z,60.95
2022-12-31T12:10:21.129Z,62.23
2022-12-31T12:12:47.890Z,62.68
2022-12-31T12:15:22.549Z,62.94
2022-12-31T12:17:53.895Z,62.80
2022-12-31T12:20:28.962Z,63.21
2022-12-31T12:22:56.161Z,62.72
2022-12-31T12:25:27.070Z,62.51
2022-12-31T12:27:54.267Z,62.47
2022-12-31T12:30:26.377Z,61.97
2022-12-31T12:32:55.854Z,62.88
2022-12-31T12:35:30.027Z,61.84
2022-12-31T12:38:02.081Z,62.45
2022-12-31T12:40:34.204Z,62.76
2022-12-31T12:43:06.986Z,62.46
2022-12-31T12:45:46.397Z,62.57
2022-12-31T12:48:21.742Z,61.75
2022-12-31T12:50:51.286Z,61.46
2022-12-31T12:53:35.431Z,62.40
2022-12-31T12:56:12.591Z,62.65
2022-12-31T12:58:52.982Z,62.37
2022-12-31T13:01:30.303Z,62.47
2022-12-31T13:04:36.062Z,62.72
2022-12-31T13:07:16.977Z,62.64
2022-12-31T13:10:03.781Z,63.01
2022-12-31T13:13:13.625Z,63.35
2022-12-31T13:15:36.352Z,63.36
2022-12-31T13:18:14.797Z,63.14
2022-12-31T13:20:49.756Z,62.61
2022-12-31T13:23:25.666Z,62.50
2022-12-31T13:26:03.236Z,62.64
2022-12-31T13:28:32.189Z,62.22
2022-12-31T13:31:06.490Z,62.30
2022-12-31T13:33:39.262Z,62.79
2022-12-31T13:36:09.574Z,62.99
2022-12-31T13:38:42.144Z,62.83
2022-12-31T13:41:17.019Z,63.34
2022-12-31T13:43:51.151Z,63.40
2022-12-31T13:46:21.302Z,63.68
2022-12-31T13:48:56.574Z,64.10
2022-12-31T13:51:43.197Z,64.37
2022-12-31T13:54:24.743Z,64.65
2022-12-31T13:56:53.409Z,65.65
2022-12-31T13:59:27.915Z,65.72
2022-12-31T14:02:01.749Z,66.22
2022-12-31T14:04:38.225Z,66.25
2022-12-31T14:07:12.399Z,67.73
2022-12-31T14:09:40.398Z,66.29
2022-12-31T14:12:21.760Z,66.37
2022-12-31T14:14:55.178Z,65.82
2022-12-31T14:17:28.504Z,66.82
2022-12-31T14:20:08.713Z,67.06
2022-12-31T14:22:43.891Z,68.08
2022-12-31T14:25:21.161Z,69.33
2022-12-31T14:27:52.193Z,69.66
2022-12-31T14:30:22.815Z,70.48
2022-12-31T14:33:05.232Z,71.55
2022-12-31T14:36:08.254Z,72.60
2022-12-31T14:39:02.337Z,74.55
2022-12-31T14:41:59.796Z,76.45
2022-12-31T14:44:46.771Z,76.66
2022-12-31T14:47:26.976Z,78.68
2022-12-31T14:50:13.131Z,80.27
2022-12-31T14:52:52.997Z,81.19
2022-12-31T14:55:28.696Z,82.04
2022-12-31T15:00:53.683Z,86.40
2022-12-31T15:03:28.940Z,86.28
2022-12-31T15:06:01.779Z,87.37
2022-12-31T15:08:50.200Z,87.30
2022-12-31T15:11:41.043Z,88.65
2022-12-31T15:14:30.932Z,89.04
2022-12-31T15:17:16.071Z,89.32
2022-12-31T15:20:17.610Z,89.46
2022-12-31T15:22:49.057Z,89.78
2022-12-31T15:25:24.210Z,90.87
2022-12-31T15:27:53.770Z,90.54
2022-12-31T15:30:38.416Z,90.67
2022-12-31T15:33:11.354Z,91.51
2022-12-31T15:35:48.203Z,92.73
2022-12-31T15:38:35.651Z,93.08
2022-12-31T15:41:15.397Z,92.44
2022-12-31T15:43:54.686Z,92.51
2022-12-31T15:46:28.272Z,93.41
2022-12-31T15:49:04.979Z,93.25
2022-12-31T15:51:43.042Z,92.99
2022-12-31T15:54:23.229Z,92.54
2022-12-31T15:56:51.300Z,92.83
2022-12-31T15:59:18.905Z,94.25
2022-12-31T16:01:49.438Z,93.74
2022-12-31T16:04:21.964Z,94.98
2022-12-31T16:06:51.394Z,94.56
2022-12-31T16:09:23.588Z,94.10
2022-12-31T16:11:51.899Z,93.96
2022-12-31T16:14:23.760Z,93.34
2022-12-31T16:16:57.548Z,94.18
2022-12-31T16:19:31.049Z,93.50
2022-12-31T16:22:02.860Z,92.82
2022-12-31T16:24:32.239Z,92.78
2022-12-31T16:27:05.717Z,93.17
2022-12-31T16:29:35.353Z,94.75
2022-12-31T16:32:04.197Z,94.55
2022-12-31T16:34:36.849Z,94.54
2022-12-31T16:37:05.578Z,94.80
2022-12-31T16:39:35.170Z,94.31
2022-12-31T16:42:24.067Z,95.20
2022-12-31T16:44:52.793Z,95.45
2022-12-31T16:47:25.519Z,94.90
2022-12-31T16:50:01.767Z,95.45
2022-12-31T16:52:33.965Z,95.98
2022-12-31T16:55:00.905Z,96.75
2022-12-31T16:57:36.686Z,96.74
2022-12-31T17:00:06.702Z,97.75
2022-12-31T17:02:39.237Z,97.18
2022-12-31T17:05:18.850Z,96.86
2022-12-31T17:07:46.731Z,96.96
2022-12-31T17:10:21.073Z,97.23
2022-12-31T17:15:45.797Z,97.70
2022-12-31T17:18:25.851Z,97.46
2022-12-31T17:20:54.464Z,97.71
2022-12-31T17:23:31.161Z,97.98
2022-12-31T17:26:00.968Z,97.64
2022-12-31T17:28:32.731Z,97.04
2022-12-31T17:31:20.985Z,96.95
2022-12-31T17:33:54.102Z,96.51
2022-12-31T17:36:23.565Z,96.47
2022-12-31T17:38:53.377Z,96.71
2022-12-31T17:41:24.477Z,96.72
2022-12-31T17:43:55.752Z,96.67
2022-12-31T17:46:24.202Z,96.75
2022-12-31T17:48:59.268Z,97.07
2022-12-31T17:51:27.249Z,96.12
2022-12-31T17:53:54.264Z,96.98
2022-12-31T17:56:22.382Z,96.83
2022-12-31T17:58:56.617Z,96.45
2022-12-31T18:01:23.807Z,96.64
2022-12-31T18:03:53.408Z,97.23
2022-12-31T18:06:21.277Z,96.99
2022-12-31T18:08:49.111Z,97.25
2022-12-31T18:11:19.993Z,97.73
2022-12-31T18:13:47.027Z,98.13
2022-12-31T18:16:14.726Z,98.64
2022-12-31T18:18:43.186Z,99.80
2022-12-31T18:21:17.653Z,99.22
2022-12-31T18:23:45.123Z,98.90
2022-12-31T18:26:13.991Z,98.46
2022-12-31T18:28:41.815Z,98.41
2022-12-31T18:31:15.716Z,98.36
2022-12-31T18:33:43.248Z,98.34
2022-12-31T18:36:15.230Z,98.62
2022-12-31T18:38:42.595Z,99.00
2022-12-31T18:41:16.885Z,99.91
2022-12-31T18:43:44.957Z,99.08
2022-12-31T18:46:14.611Z,98.84
2022-12-31T18:48:41.874Z,98.97
2022-12-31T18:51:14.710Z,98.35
2022-12-31T18:53:41.456Z,97.52
2022-12-31T18:56:12.367Z,98.29
2022-12-31T18:58:39.671Z,98.45
2022-12-31T19:01:25.943Z,98.84
2022-12-31T19:03:54.491Z,98.65
2022-12-31T19:06:27.071Z,99.25
2022-12-31T19:11:37.448Z,98.70
2022-12-31T19:14:14.112Z,99.91
2022-12-31T19:16:41.179Z,99.57
2022-12-31T19:19:11.678Z,98.36
2022-12-31T19:21:48.167Z,98.05
2022-12-31T19:24:19.820Z,98.50
2022-12-31T19:26:49.271Z,98.27
2022-12-31T19:29:24.061Z,98.09
2022-12-31T19:31:51.284Z,98.33
2022-12-31T19:34:19.368Z,98.53
2022-12-31T19:36:48.509Z,98.29
2022-12-31T19:39:19.744Z,99.02
2022-12-31T19:41:56.572Z,99.96
2022-12-31T19:44:27.309Z,100.00
2022-12-31T19:46:55.045Z,100.00
2022-12-31T19:49:22.275Z,100.00
2022-12-31T19:51:54.979Z,100.00
2022-12-31T19:54:26.459Z,99.52
2022-12-31T19:56:58.778Z,100.00
2022-12-31T19:59:30.101Z,100.00
2022-12-31T20:01:57.336Z,100.00
2022-12-31T20:04:24.645Z,100.00
2022-12-31T20:06:53.895Z,100.00
2022-12-31T20:09:21.121Z,100.00
2022-12-31T20:11:48.200Z,100.00
2022-12-31T20:14:15.559Z,100.00
2022-12-31T20:16:44.913Z,100.00
2022-12-31T20:19:11.910Z,100.00
2022-12-31T20:21:42.398Z,100.00
2022-12-31T20:24:11.441Z,100.00
2022-12-31T20:26:39.376Z,100.00
2022-12-31T20:29:06.360Z,100.00
2022-12-31T20:31:34.471Z,100.00
2022-12-31T20:34:02.821Z,100.00
2022-12-31T20:36:30.356Z,100.00
2022-12-31T20:38:58.639Z,100.00
2022-12-31T20:41:29.260Z,100.00
2022-12-31T20:43:56.584Z,100.00
2022-12-31T20:46:26.916Z,100.00
2022-12-31T20:48:56.069Z,100.00
2022-12-31T20:51:27.400Z,100.00
2022-12-31T20:53:56.870Z,100.00
2022-12-31T20:56:25.095Z,100.00
2022-12-31T20:58:55.915Z,100.00
2022-12-31T21:01:23.009Z,100.00
2022-12-31T21:04:04.688Z,100.00
2022-12-31T21:06:33.818Z,100.00
2022-12-31T21:09:02.284Z,100.00
2022-12-31T21:11:29.731Z,100.00
2022-12-31T21:14:00.657Z,100.00
2022-12-31T21:16:28.511Z,100.00
2022-12-31T21:18:57.188Z,100.00
2022-12-31T21:21:24.678Z,99.67
2022-12-31T21:23:52.972Z,100.00
2022-12-31T21:26:20.178Z,100.00
2022-12-31T21:28:47.358Z,100.00
2022-12-31T21:31:15.821Z,100.00
2022-12-31T21:33:46.912Z,100.00
2022-12-31T21:36:14.887Z,100.00
2022-12-31T21:38:43.787Z,100.00
2022-12-31T21:41:12.754Z,100.00
2022-12-31T21:43:39.937Z,100.00
2022-12-31T21:46:07.697Z,100.00
2022-12-31T21:48:37.192Z,100.00
2022-12-31T21:51:09.394Z,100.00
2022-12-31T21:53:37.642Z,100.00
2022-12-31T21:56:08.512Z,100.00
2022-12-31T21:58:37.627Z,100.00
2022-12-31T22:01:05.855Z,100.00
2022-12-31T22:03:37.406Z,100.00
2022-12-31T22:06:06.781Z,100.00
2022-12-31T22:08:33.876Z,100.00
2022-12-31T22:11:03.911Z,100.00
2022-12-31T22:13:30.857Z,100.00
2022-12-31T22:16:05.359Z,100.00
2022-12-31T22:18:34.922Z,100.00
2022-12-31T22:21:13.779Z,100.00
2022-12-31T22:23:46.333Z,100.00
2022-12-31T22:26:16.510Z,100.00
2022-12-31T22:28:47.045Z,100.00
2022-12-31T22:31:20.832Z,100.00
2022-12-31T22:33:48.247Z,100.00
2022-12-31T22:36:20.559Z,100.00
2022-12-31T22:38:50.744Z,100.00
2022-12-31T22:41:20.853Z,100.00
2022-12-31T22:43:49.400Z,100.00
2022-12-31T22:46:20.358Z,100.00
2022-12-31T22:48:48.344Z,100.00
2022-12-31T22:51:16.292Z,100.00
2022-12-31T22:53:46.432Z,100.00
2022-12-31T22:56:16.169Z,100.00
2022-12-31T22:58:49.367Z,100.00
2022-12-31T23:01:18.097Z,100.00
2022-12-31T23:03:46.422Z,100.00
2022-12-31T23:06:15.330Z,100.00
2022-12-31T23:08:45.465Z,100.00
2022-12-31T23:11:12.743Z,100.00
2022-12-31T23:13:47.660Z,100.00
2022-12-31T23:16:18.857Z,100.00
2022-12-31T23:18:50.314Z,100.00
2022-12-31T23:21:21.999Z,100.00
2022-12-31T23:23:55.248Z,100.00
2022-12-31T23:26:22.268Z,100.00
2022-12-31T23:28:51.527Z,100.00
2022-12-31T23:31:19.230Z,100.00
2022-12-31T23:33:47.377Z,100.00
2022-12-31T23:36:14.557Z,100.00
2022-12-31T23:38:41.682Z,100.00
2022-12-31T23:41:14.348Z,100.00
2022-12-31T23:43:41.530Z,100.00
2022-12-31T23:46:09.076Z,100.00
2022-12-31T23:48:36.708Z,100.00
2022-12-31T23:51:06.291Z,100.00
2022-12-31T23:53:33.547Z,100.00
2022-12-31T23:56:23.329Z,100.00
2022-12-31T23:58:55.873Z,100.00
